sensor_id;sensor_type;location;lat;lon;timestamp;P1;durP1;ratioP1;P2;durP2;ratioP2
36195;SDS011;22237;51.974;4.616;2023-07-31T00:01:45;21.27;;;4.00;;
36195;SDS011;22237;51.974;4.616;2023-07-31T00:04:10;25.90;;;4.30;;
36195;SDS011;22237;51.974;4.616;2023-07-31T00:06:36;20.40;;;3.55;;
36195;SDS011;22237;51.974;4.616;2023-07-31T00:09:01;16.73;;;3.50;;
36195;SDS011;22237;51.974;4.616;2023-07-31T00:11:26;20.15;;;3.75;;
36195;SDS011;22237;51.974;4.616;2023-07-31T00:13:52;17.08;;;4.25;;
36195;SDS011;22237;51.974;4.616;2023-07-31T00:16:18;19.20;;;3.75;;
36195;SDS011;22237;51.974;4.616;2023-07-31T00:18:44;16.80;;;3.72;;
36195;SDS011;22237;51.974;4.616;2023-07-31T00:21:09;17.83;;;3.85;;
36195;SDS011;22237;51.974;4.616;2023-07-31T00:23:35;9.88;;;3.25;;
36195;SDS011;22237;51.974;4.616;2023-07-31T00:26:00;13.40;;;4.07;;
36195;SDS011;22237;51.974;4.616;2023-07-31T00:28:25;14.50;;;3.55;;
36195;SDS011;22237;51.974;4.616;2023-07-31T00:30:52;25.95;;;3.92;;
36195;SDS011;22237;51.974;4.616;2023-07-31T00:33:17;16.40;;;3.75;;
36195;SDS011;22237;51.974;4.616;2023-07-31T00:35:43;14.82;;;4.53;;
36195;SDS011;22237;51.974;4.616;2023-07-31T00:38:08;20.10;;;5.25;;
36195;SDS011;22237;51.974;4.616;2023-07-31T00:40:36;18.58;;;3.95;;
36195;SDS011;22237;51.974;4.616;2023-07-31T00:43:02;16.88;;;3.33;;
36195;SDS011;22237;51.974;4.616;2023-07-31T00:45:28;18.92;;;3.53;;
36195;SDS011;22237;51.974;4.616;2023-07-31T00:47:54;21.02;;;4.00;;
36195;SDS011;22237;51.974;4.616;2023-07-31T00:50:20;15.45;;;3.70;;
36195;SDS011;22237;51.974;4.616;2023-07-31T00:52:47;15.93;;;4.00;;
36195;SDS011;22237;51.974;4.616;2023-07-31T00:55:12;18.67;;;4.50;;
36195;SDS011;22237;51.974;4.616;2023-07-31T00:57:38;16.38;;;4.00;;
36195;SDS011;22237;51.974;4.616;2023-07-31T01:00:06;19.02;;;3.97;;
36195;SDS011;22237;51.974;4.616;2023-07-31T01:02:32;24.67;;;4.00;;
36195;SDS011;22237;51.974;4.616;2023-07-31T01:04:58;20.90;;;5.45;;
36195;SDS011;22237;51.974;4.616;2023-07-31T01:07:27;17.63;;;3.78;;
36195;SDS011;22237;51.974;4.616;2023-07-31T01:10:01;14.75;;;3.42;;
36195;SDS011;22237;51.974;4.616;2023-07-31T01:12:32;12.93;;;2.42;;
36195;SDS011;22237;51.974;4.616;2023-07-31T01:15:06;5.75;;;2.17;;
36195;SDS011;22237;51.974;4.616;2023-07-31T01:17:35;10.30;;;2.55;;
36195;SDS011;22237;51.974;4.616;2023-07-31T01:20:05;9.32;;;3.22;;
36195;SDS011;22237;51.974;4.616;2023-07-31T01:28:07;18.42;;;4.57;;
36195;SDS011;22237;51.974;4.616;2023-07-31T01:30:41;11.52;;;3.65;;
36195;SDS011;22237;51.974;4.616;2023-07-31T01:33:09;10.13;;;2.83;;
36195;SDS011;22237;51.974;4.616;2023-07-31T01:35:35;21.10;;;4.60;;
36195;SDS011;22237;51.974;4.616;2023-07-31T01:38:02;12.98;;;3.65;;
36195;SDS011;22237;51.974;4.616;2023-07-31T01:40:28;25.33;;;4.05;;
36195;SDS011;22237;51.974;4.616;2023-07-31T01:42:53;21.50;;;3.88;;
36195;SDS011;22237;51.974;4.616;2023-07-31T01:45:19;18.55;;;3.35;;
36195;SDS011;22237;51.974;4.616;2023-07-31T01:47:44;18.63;;;3.75;;
36195;SDS011;22237;51.974;4.616;2023-07-31T01:50:10;27.30;;;4.25;;
36195;SDS011;22237;51.974;4.616;2023-07-31T01:52:35;17.17;;;4.47;;
36195;SDS011;22237;51.974;4.616;2023-07-31T01:55:01;16.75;;;3.40;;
36195;SDS011;22237;51.974;4.616;2023-07-31T01:57:26;14.32;;;3.33;;
36195;SDS011;22237;51.974;4.616;2023-07-31T01:59:51;23.30;;;4.03;;
36195;SDS011;22237;51.974;4.616;2023-07-31T02:02:18;10.25;;;4.00;;
36195;SDS011;22237;51.974;4.616;2023-07-31T02:04:44;16.45;;;3.25;;
36195;SDS011;22237;51.974;4.616;2023-07-31T02:07:09;14.23;;;3.83;;
36195;SDS011;22237;51.974;4.616;2023-07-31T02:09:35;11.02;;;3.42;;
36195;SDS011;22237;51.974;4.616;2023-07-31T02:12:00;21.17;;;4.57;;
36195;SDS011;22237;51.974;4.616;2023-07-31T02:14:25;26.02;;;5.28;;
36195;SDS011;22237;51.974;4.616;2023-07-31T02:16:51;21.55;;;4.55;;
36195;SDS011;22237;51.974;4.616;2023-07-31T02:19:16;20.58;;;4.25;;
36195;SDS011;22237;51.974;4.616;2023-07-31T02:21:41;31.67;;;4.18;;
36195;SDS011;22237;51.974;4.616;2023-07-31T02:24:07;17.63;;;4.05;;
36195;SDS011;22237;51.974;4.616;2023-07-31T02:26:32;12.02;;;3.83;;
36195;SDS011;22237;51.974;4.616;2023-07-31T02:28:57;17.50;;;3.85;;
36195;SDS011;22237;51.974;4.616;2023-07-31T02:31:23;14.75;;;4.28;;
36195;SDS011;22237;51.974;4.616;2023-07-31T02:33:48;27.40;;;5.25;;
36195;SDS011;22237;51.974;4.616;2023-07-31T02:36:13;17.13;;;4.07;;
36195;SDS011;22237;51.974;4.616;2023-07-31T02:38:39;18.88;;;3.58;;
36195;SDS011;22237;51.974;4.616;2023-07-31T02:41:05;14.80;;;4.32;;
36195;SDS011;22237;51.974;4.616;2023-07-31T02:43:30;17.73;;;4.30;;
36195;SDS011;22237;51.974;4.616;2023-07-31T02:45:55;18.27;;;3.90;;
36195;SDS011;22237;51.974;4.616;2023-07-31T02:48:21;24.20;;;3.47;;
36195;SDS011;22237;51.974;4.616;2023-07-31T02:50:47;16.02;;;3.85;;
36195;SDS011;22237;51.974;4.616;2023-07-31T02:53:13;17.83;;;3.75;;
36195;SDS011;22237;51.974;4.616;2023-07-31T02:55:38;27.45;;;3.65;;
36195;SDS011;22237;51.974;4.616;2023-07-31T02:58:04;18.27;;;3.40;;
36195;SDS011;22237;51.974;4.616;2023-07-31T03:00:29;15.48;;;4.05;;
36195;SDS011;22237;51.974;4.616;2023-07-31T03:02:55;18.60;;;3.63;;
36195;SDS011;22237;51.974;4.616;2023-07-31T03:05:20;27.80;;;4.78;;
36195;SDS011;22237;51.974;4.616;2023-07-31T03:07:45;17.50;;;3.95;;
36195;SDS011;22237;51.974;4.616;2023-07-31T03:10:11;19.48;;;3.40;;
36195;SDS011;22237;51.974;4.616;2023-07-31T03:12:37;9.40;;;3.03;;
36195;SDS011;22237;51.974;4.616;2023-07-31T03:15:02;16.17;;;4.57;;
36195;SDS011;22237;51.974;4.616;2023-07-31T03:17:28;15.82;;;3.42;;
36195;SDS011;22237;51.974;4.616;2023-07-31T03:19:54;23.48;;;4.28;;
36195;SDS011;22237;51.974;4.616;2023-07-31T03:22:19;20.67;;;3.13;;
36195;SDS011;22237;51.974;4.616;2023-07-31T03:24:44;17.67;;;3.90;;
36195;SDS011;22237;51.974;4.616;2023-07-31T03:27:10;21.40;;;4.32;;
36195;SDS011;22237;51.974;4.616;2023-07-31T03:29:35;20.70;;;4.05;;
36195;SDS011;22237;51.974;4.616;2023-07-31T03:32:00;18.67;;;5.03;;
36195;SDS011;22237;51.974;4.616;2023-07-31T03:34:26;21.95;;;3.75;;
36195;SDS011;22237;51.974;4.616;2023-07-31T03:36:51;16.88;;;3.42;;
36195;SDS011;22237;51.974;4.616;2023-07-31T03:39:16;11.48;;;3.30;;
36195;SDS011;22237;51.974;4.616;2023-07-31T03:41:42;20.30;;;3.22;;
36195;SDS011;22237;51.974;4.616;2023-07-31T03:44:07;12.60;;;4.07;;
36195;SDS011;22237;51.974;4.616;2023-07-31T03:46:33;9.98;;;3.58;;
36195;SDS011;22237;51.974;4.616;2023-07-31T03:48:58;17.70;;;3.70;;
36195;SDS011;22237;51.974;4.616;2023-07-31T03:51:24;9.35;;;3.95;;
36195;SDS011;22237;51.974;4.616;2023-07-31T03:53:49;13.43;;;4.30;;
36195;SDS011;22237;51.974;4.616;2023-07-31T03:56:15;17.15;;;3.72;;
36195;SDS011;22237;51.974;4.616;2023-07-31T03:58:40;8.13;;;3.20;;
36195;SDS011;22237;51.974;4.616;2023-07-31T04:01:05;13.70;;;3.28;;
36195;SDS011;22237;51.974;4.616;2023-07-31T04:03:31;14.50;;;3.75;;
36195;SDS011;22237;51.974;4.616;2023-07-31T04:05:56;12.88;;;3.15;;
36195;SDS011;22237;51.974;4.616;2023-07-31T04:08:22;8.48;;;3.15;;
36195;SDS011;22237;51.974;4.616;2023-07-31T04:10:48;5.25;;;2.88;;
36195;SDS011;22237;51.974;4.616;2023-07-31T04:13:13;16.08;;;4.75;;
36195;SDS011;22237;51.974;4.616;2023-07-31T04:15:39;10.27;;;3.50;;
36195;SDS011;22237;51.974;4.616;2023-07-31T04:18:05;11.00;;;3.13;;
36195;SDS011;22237;51.974;4.616;2023-07-31T04:20:30;12.40;;;2.85;;
36195;SDS011;22237;51.974;4.616;2023-07-31T04:22:55;15.65;;;2.97;;
36195;SDS011;22237;51.974;4.616;2023-07-31T04:25:21;6.57;;;2.50;;
36195;SDS011;22237;51.974;4.616;2023-07-31T04:27:46;9.82;;;2.78;;
36195;SDS011;22237;51.974;4.616;2023-07-31T04:30:12;6.55;;;3.33;;
36195;SDS011;22237;51.974;4.616;2023-07-31T04:32:37;4.93;;;2.10;;
36195;SDS011;22237;51.974;4.616;2023-07-31T04:35:03;8.93;;;2.53;;
36195;SDS011;22237;51.974;4.616;2023-07-31T04:37:28;5.57;;;2.70;;
36195;SDS011;22237;51.974;4.616;2023-07-31T04:39:54;3.28;;;1.98;;
36195;SDS011;22237;51.974;4.616;2023-07-31T04:42:19;8.07;;;3.03;;
36195;SDS011;22237;51.974;4.616;2023-07-31T04:44:44;5.32;;;2.40;;
36195;SDS011;22237;51.974;4.616;2023-07-31T04:47:10;5.82;;;2.30;;
36195;SDS011;22237;51.974;4.616;2023-07-31T04:49:35;8.63;;;2.47;;
36195;SDS011;22237;51.974;4.616;2023-07-31T04:52:01;5.60;;;2.67;;
36195;SDS011;22237;51.974;4.616;2023-07-31T04:54:26;5.72;;;2.15;;
36195;SDS011;22237;51.974;4.616;2023-07-31T04:56:52;5.72;;;2.67;;
36195;SDS011;22237;51.974;4.616;2023-07-31T04:59:17;9.90;;;2.47;;
36195;SDS011;22237;51.974;4.616;2023-07-31T05:01:43;7.63;;;2.75;;
36195;SDS011;22237;51.974;4.616;2023-07-31T05:04:12;7.30;;;2.63;;
36195;SDS011;22237;51.974;4.616;2023-07-31T05:06:39;10.73;;;2.60;;
36195;SDS011;22237;51.974;4.616;2023-07-31T05:09:04;6.47;;;2.42;;
36195;SDS011;22237;51.974;4.616;2023-07-31T05:11:29;4.25;;;2.33;;
36195;SDS011;22237;51.974;4.616;2023-07-31T05:13:55;7.18;;;2.28;;
36195;SDS011;22237;51.974;4.616;2023-07-31T05:16:20;9.60;;;2.30;;
36195;SDS011;22237;51.974;4.616;2023-07-31T05:18:45;4.90;;;1.90;;
36195;SDS011;22237;51.974;4.616;2023-07-31T05:21:11;8.20;;;1.95;;
36195;SDS011;22237;51.974;4.616;2023-07-31T05:23:36;6.30;;;1.85;;
36195;SDS011;22237;51.974;4.616;2023-07-31T05:26:02;8.55;;;2.03;;
36195;SDS011;22237;51.974;4.616;2023-07-31T05:28:31;4.40;;;2.05;;
36195;SDS011;22237;51.974;4.616;2023-07-31T05:30:59;6.70;;;1.90;;
36195;SDS011;22237;51.974;4.616;2023-07-31T05:33:27;5.43;;;2.10;;
36195;SDS011;22237;51.974;4.616;2023-07-31T05:35:53;9.95;;;2.42;;
36195;SDS011;22237;51.974;4.616;2023-07-31T05:38:18;5.50;;;1.83;;
36195;SDS011;22237;51.974;4.616;2023-07-31T05:40:44;2.17;;;1.65;;
36195;SDS011;22237;51.974;4.616;2023-07-31T05:43:09;4.00;;;1.95;;
36195;SDS011;22237;51.974;4.616;2023-07-31T05:45:35;4.22;;;1.98;;
36195;SDS011;22237;51.974;4.616;2023-07-31T05:48:00;7.05;;;3.05;;
36195;SDS011;22237;51.974;4.616;2023-07-31T05:50:26;4.75;;;1.63;;
36195;SDS011;22237;51.974;4.616;2023-07-31T05:52:52;6.25;;;1.98;;
36195;SDS011;22237;51.974;4.616;2023-07-31T05:55:18;4.43;;;1.95;;
36195;SDS011;22237;51.974;4.616;2023-07-31T05:57:43;5.07;;;2.10;;
36195;SDS011;22237;51.974;4.616;2023-07-31T06:00:11;4.10;;;1.98;;
36195;SDS011;22237;51.974;4.616;2023-07-31T06:02:37;4.72;;;2.28;;
36195;SDS011;22237;51.974;4.616;2023-07-31T06:05:03;6.00;;;2.25;;
36195;SDS011;22237;51.974;4.616;2023-07-31T06:07:30;4.85;;;2.17;;
36195;SDS011;22237;51.974;4.616;2023-07-31T06:09:58;6.30;;;1.60;;
36195;SDS011;22237;51.974;4.616;2023-07-31T06:12:30;4.47;;;1.85;;
36195;SDS011;22237;51.974;4.616;2023-07-31T06:14:56;3.63;;;1.58;;
36195;SDS011;22237;51.974;4.616;2023-07-31T06:17:22;3.50;;;1.77;;
36195;SDS011;22237;51.974;4.616;2023-07-31T06:19:47;4.32;;;1.73;;
36195;SDS011;22237;51.974;4.616;2023-07-31T06:22:12;6.00;;;2.03;;
36195;SDS011;22237;51.974;4.616;2023-07-31T06:24:38;10.40;;;2.53;;
36195;SDS011;22237;51.974;4.616;2023-07-31T06:27:03;4.43;;;1.85;;
36195;SDS011;22237;51.974;4.616;2023-07-31T06:29:30;2.92;;;1.75;;
36195;SDS011;22237;51.974;4.616;2023-07-31T06:31:56;8.70;;;2.03;;
36195;SDS011;22237;51.974;4.616;2023-07-31T06:34:21;5.40;;;1.50;;
36195;SDS011;22237;51.974;4.616;2023-07-31T06:36:47;2.10;;;1.52;;
36195;SDS011;22237;51.974;4.616;2023-07-31T06:39:12;4.20;;;1.63;;
36195;SDS011;22237;51.974;4.616;2023-07-31T06:41:38;1.90;;;1.17;;
36195;SDS011;22237;51.974;4.616;2023-07-31T06:44:04;2.47;;;1.60;;
36195;SDS011;22237;51.974;4.616;2023-07-31T06:46:29;3.17;;;1.50;;
36195;SDS011;22237;51.974;4.616;2023-07-31T06:48:54;4.00;;;1.60;;
36195;SDS011;22237;51.974;4.616;2023-07-31T06:51:20;3.60;;;1.73;;
36195;SDS011;22237;51.974;4.616;2023-07-31T06:53:45;1.75;;;1.30;;
36195;SDS011;22237;51.974;4.616;2023-07-31T06:56:11;4.78;;;1.90;;
36195;SDS011;22237;51.974;4.616;2023-07-31T06:58:37;3.22;;;1.63;;
36195;SDS011;22237;51.974;4.616;2023-07-31T07:01:02;5.10;;;1.30;;
36195;SDS011;22237;51.974;4.616;2023-07-31T07:03:28;3.97;;;1.40;;
36195;SDS011;22237;51.974;4.616;2023-07-31T07:05:53;3.15;;;1.40;;
36195;SDS011;22237;51.974;4.616;2023-07-31T07:08:18;2.45;;;1.30;;
36195;SDS011;22237;51.974;4.616;2023-07-31T07:10:44;3.35;;;1.40;;
36195;SDS011;22237;51.974;4.616;2023-07-31T07:13:09;3.05;;;1.40;;
36195;SDS011;22237;51.974;4.616;2023-07-31T07:15:35;4.70;;;1.40;;
36195;SDS011;22237;51.974;4.616;2023-07-31T07:18:00;1.40;;;1.30;;
36195;SDS011;22237;51.974;4.616;2023-07-31T07:20:25;1.70;;;1.27;;
36195;SDS011;22237;51.974;4.616;2023-07-31T07:22:51;1.58;;;1.45;;
36195;SDS011;22237;51.974;4.616;2023-07-31T07:25:16;0.95;;;0.95;;
36195;SDS011;22237;51.974;4.616;2023-07-31T07:27:42;2.55;;;1.60;;
36195;SDS011;22237;51.974;4.616;2023-07-31T07:30:07;1.13;;;1.02;;
36195;SDS011;22237;51.974;4.616;2023-07-31T07:32:33;1.10;;;1.00;;
36195;SDS011;22237;51.974;4.616;2023-07-31T07:34:59;1.15;;;0.88;;
36195;SDS011;22237;51.974;4.616;2023-07-31T07:37:24;1.67;;;0.98;;
36195;SDS011;22237;51.974;4.616;2023-07-31T07:39:49;1.30;;;0.85;;
36195;SDS011;22237;51.974;4.616;2023-07-31T07:42:15;1.17;;;0.90;;
36195;SDS011;22237;51.974;4.616;2023-07-31T07:44:40;1.60;;;1.08;;
36195;SDS011;22237;51.974;4.616;2023-07-31T07:47:05;0.93;;;0.75;;
36195;SDS011;22237;51.974;4.616;2023-07-31T07:49:32;1.35;;;1.25;;
36195;SDS011;22237;51.974;4.616;2023-07-31T07:51:58;1.13;;;1.02;;
36195;SDS011;22237;51.974;4.616;2023-07-31T07:54:23;2.35;;;1.10;;
36195;SDS011;22237;51.974;4.616;2023-07-31T07:56:49;1.05;;;0.65;;
36195;SDS011;22237;51.974;4.616;2023-07-31T07:59:14;0.60;;;0.60;;
36195;SDS011;22237;51.974;4.616;2023-07-31T08:01:40;0.82;;;0.70;;
36195;SDS011;22237;51.974;4.616;2023-07-31T08:04:05;0.95;;;0.70;;
36195;SDS011;22237;51.974;4.616;2023-07-31T08:06:30;1.35;;;0.70;;
36195;SDS011;22237;51.974;4.616;2023-07-31T08:08:56;1.23;;;0.75;;
36195;SDS011;22237;51.974;4.616;2023-07-31T08:11:21;4.95;;;0.77;;
36195;SDS011;22237;51.974;4.616;2023-07-31T08:13:48;0.63;;;0.60;;
36195;SDS011;22237;51.974;4.616;2023-07-31T08:16:14;0.43;;;0.40;;
36195;SDS011;22237;51.974;4.616;2023-07-31T08:18:39;1.02;;;0.73;;
36195;SDS011;22237;51.974;4.616;2023-07-31T08:21:05;2.08;;;0.77;;
36195;SDS011;22237;51.974;4.616;2023-07-31T08:23:31;0.55;;;0.40;;
36195;SDS011;22237;51.974;4.616;2023-07-31T08:25:56;1.38;;;0.50;;
36195;SDS011;22237;51.974;4.616;2023-07-31T08:28:21;0.47;;;0.47;;
36195;SDS011;22237;51.974;4.616;2023-07-31T08:30:47;1.77;;;0.90;;
36195;SDS011;22237;51.974;4.616;2023-07-31T08:33:12;0.55;;;0.40;;
36195;SDS011;22237;51.974;4.616;2023-07-31T08:35:37;0.55;;;0.55;;
36195;SDS011;22237;51.974;4.616;2023-07-31T08:38:03;0.50;;;0.50;;
36195;SDS011;22237;51.974;4.616;2023-07-31T08:40:28;0.50;;;0.47;;
36195;SDS011;22237;51.974;4.616;2023-07-31T08:42:54;0.82;;;0.60;;
36195;SDS011;22237;51.974;4.616;2023-07-31T08:45:21;0.63;;;0.55;;
36195;SDS011;22237;51.974;4.616;2023-07-31T08:47:48;1.80;;;0.47;;
36195;SDS011;22237;51.974;4.616;2023-07-31T08:50:16;0.90;;;0.50;;
36195;SDS011;22237;51.974;4.616;2023-07-31T08:52:42;1.00;;;0.47;;
36195;SDS011;22237;51.974;4.616;2023-07-31T08:55:08;0.50;;;0.40;;
36195;SDS011;22237;51.974;4.616;2023-07-31T08:57:35;1.75;;;0.68;;
36195;SDS011;22237;51.974;4.616;2023-07-31T09:00:02;0.70;;;0.68;;
36195;SDS011;22237;51.974;4.616;2023-07-31T09:02:37;0.95;;;0.65;;
36195;SDS011;22237;51.974;4.616;2023-07-31T09:05:05;0.60;;;0.60;;
36195;SDS011;22237;51.974;4.616;2023-07-31T09:07:32;0.70;;;0.50;;
36195;SDS011;22237;51.974;4.616;2023-07-31T09:10:00;1.35;;;0.75;;
36195;SDS011;22237;51.974;4.616;2023-07-31T09:12:25;1.60;;;0.80;;
36195;SDS011;22237;51.974;4.616;2023-07-31T09:14:51;1.20;;;0.73;;
36195;SDS011;22237;51.974;4.616;2023-07-31T09:17:16;1.23;;;0.93;;
36195;SDS011;22237;51.974;4.616;2023-07-31T09:19:57;2.33;;;0.85;;
36195;SDS011;22237;51.974;4.616;2023-07-31T09:22:33;1.73;;;1.27;;
36195;SDS011;22237;51.974;4.616;2023-07-31T09:30:13;2.42;;;0.98;;
36195;SDS011;22237;51.974;4.616;2023-07-31T09:32:39;2.47;;;1.20;;
36195;SDS011;22237;51.974;4.616;2023-07-31T09:37:50;1.15;;;0.90;;
36195;SDS011;22237;51.974;4.616;2023-07-31T09:40:38;2.65;;;1.23;;
36195;SDS011;22237;51.974;4.616;2023-07-31T09:43:21;6.20;;;1.20;;
36195;SDS011;22237;51.974;4.616;2023-07-31T09:45:47;2.53;;;1.83;;
36195;SDS011;22237;51.974;4.616;2023-07-31T09:48:13;1.52;;;1.17;;
36195;SDS011;22237;51.974;4.616;2023-07-31T09:50:44;4.85;;;1.15;;
36195;SDS011;22237;51.974;4.616;2023-07-31T09:53:11;1.20;;;1.10;;
36195;SDS011;22237;51.974;4.616;2023-07-31T09:55:37;1.88;;;0.90;;
36195;SDS011;22237;51.974;4.616;2023-07-31T09:58:04;2.05;;;1.35;;
36195;SDS011;22237;51.974;4.616;2023-07-31T10:00:31;7.63;;;2.28;;
36195;SDS011;22237;51.974;4.616;2023-07-31T10:03:07;2.28;;;1.70;;
36195;SDS011;22237;51.974;4.616;2023-07-31T10:05:35;2.22;;;1.40;;
36195;SDS011;22237;51.974;4.616;2023-07-31T10:08:06;2.00;;;1.40;;
36195;SDS011;22237;51.974;4.616;2023-07-31T10:10:35;1.90;;;1.20;;
36195;SDS011;22237;51.974;4.616;2023-07-31T10:13:01;1.42;;;1.10;;
36195;SDS011;22237;51.974;4.616;2023-07-31T10:15:28;4.47;;;1.48;;
36195;SDS011;22237;51.974;4.616;2023-07-31T10:17:55;1.42;;;1.17;;
36195;SDS011;22237;51.974;4.616;2023-07-31T10:20:23;1.63;;;1.08;;
36195;SDS011;22237;51.974;4.616;2023-07-31T10:22:50;4.35;;;1.15;;
36195;SDS011;22237;51.974;4.616;2023-07-31T10:25:16;1.85;;;1.25;;
36195;SDS011;22237;51.974;4.616;2023-07-31T10:27:44;4.53;;;1.15;;
36195;SDS011;22237;51.974;4.616;2023-07-31T10:30:12;2.35;;;1.60;;
36195;SDS011;22237;51.974;4.616;2023-07-31T10:32:41;2.17;;;1.98;;
36195;SDS011;22237;51.974;4.616;2023-07-31T10:35:08;5.80;;;1.77;;
36195;SDS011;22237;51.974;4.616;2023-07-31T10:40:03;6.68;;;2.13;;
36195;SDS011;22237;51.974;4.616;2023-07-31T10:42:45;3.45;;;1.92;;
36195;SDS011;22237;51.974;4.616;2023-07-31T10:45:12;7.05;;;2.00;;
36195;SDS011;22237;51.974;4.616;2023-07-31T10:47:39;8.10;;;2.90;;
36195;SDS011;22237;51.974;4.616;2023-07-31T10:50:21;6.90;;;1.70;;
36195;SDS011;22237;51.974;4.616;2023-07-31T10:52:49;7.63;;;1.98;;
36195;SDS011;22237;51.974;4.616;2023-07-31T11:00:38;5.28;;;1.55;;
36195;SDS011;22237;51.974;4.616;2023-07-31T11:03:08;11.55;;;2.50;;
36195;SDS011;22237;51.974;4.616;2023-07-31T11:08:46;5.95;;;2.30;;
36195;SDS011;22237;51.974;4.616;2023-07-31T11:11:13;7.38;;;2.17;;
36195;SDS011;22237;51.974;4.616;2023-07-31T11:13:49;4.40;;;2.38;;
36195;SDS011;22237;51.974;4.616;2023-07-31T11:16:20;3.83;;;2.20;;
36195;SDS011;22237;51.974;4.616;2023-07-31T11:18:48;5.35;;;2.30;;
36195;SDS011;22237;51.974;4.616;2023-07-31T11:21:15;3.92;;;2.80;;
36195;SDS011;22237;51.974;4.616;2023-07-31T11:23:45;8.20;;;2.83;;
36195;SDS011;22237;51.974;4.616;2023-07-31T11:26:12;6.47;;;3.03;;
36195;SDS011;22237;51.974;4.616;2023-07-31T11:28:37;6.25;;;2.92;;
36195;SDS011;22237;51.974;4.616;2023-07-31T11:31:03;5.13;;;2.67;;
36195;SDS011;22237;51.974;4.616;2023-07-31T11:33:29;4.35;;;2.83;;
36195;SDS011;22237;51.974;4.616;2023-07-31T11:35:55;6.85;;;3.75;;
36195;SDS011;22237;51.974;4.616;2023-07-31T11:41:02;8.35;;;4.53;;
36195;SDS011;22237;51.974;4.616;2023-07-31T11:43:29;5.57;;;3.50;;
36195;SDS011;22237;51.974;4.616;2023-07-31T11:45:56;6.43;;;3.50;;
36195;SDS011;22237;51.974;4.616;2023-07-31T11:48:26;7.15;;;2.65;;
36195;SDS011;22237;51.974;4.616;2023-07-31T11:51:02;7.47;;;3.05;;
36195;SDS011;22237;51.974;4.616;2023-07-31T11:53:34;11.07;;;3.42;;
36195;SDS011;22237;51.974;4.616;2023-07-31T11:56:11;8.23;;;3.22;;
36195;SDS011;22237;51.974;4.616;2023-07-31T11:58:38;10.82;;;2.70;;
36195;SDS011;22237;51.974;4.616;2023-07-31T12:01:05;10.38;;;3.53;;
36195;SDS011;22237;51.974;4.616;2023-07-31T12:03:32;5.55;;;3.38;;
36195;SDS011;22237;51.974;4.616;2023-07-31T12:05:59;5.13;;;2.97;;
36195;SDS011;22237;51.974;4.616;2023-07-31T12:08:24;9.82;;;3.13;;
36195;SDS011;22237;51.974;4.616;2023-07-31T12:10:54;3.50;;;2.47;;
36195;SDS011;22237;51.974;4.616;2023-07-31T12:13:23;8.80;;;2.72;;
36195;SDS011;22237;51.974;4.616;2023-07-31T12:18:24;6.55;;;2.00;;
36195;SDS011;22237;51.974;4.616;2023-07-31T12:20:54;5.50;;;2.15;;
36195;SDS011;22237;51.974;4.616;2023-07-31T12:31:03;5.22;;;2.03;;
36195;SDS011;22237;51.974;4.616;2023-07-31T12:33:36;2.30;;;2.10;;
36195;SDS011;22237;51.974;4.616;2023-07-31T12:36:04;3.30;;;1.60;;
36195;SDS011;22237;51.974;4.616;2023-07-31T12:38:32;3.35;;;2.28;;
36195;SDS011;22237;51.974;4.616;2023-07-31T12:40:58;2.05;;;1.80;;
36195;SDS011;22237;51.974;4.616;2023-07-31T12:43:23;2.65;;;1.70;;
36195;SDS011;22237;51.974;4.616;2023-07-31T12:45:49;5.15;;;2.25;;
36195;SDS011;22237;51.974;4.616;2023-07-31T12:48:15;2.10;;;1.90;;
36195;SDS011;22237;51.974;4.616;2023-07-31T12:50:40;2.97;;;1.70;;
36195;SDS011;22237;51.974;4.616;2023-07-31T12:53:05;6.55;;;2.28;;
36195;SDS011;22237;51.974;4.616;2023-07-31T12:55:31;2.42;;;1.90;;
36195;SDS011;22237;51.974;4.616;2023-07-31T12:57:59;3.63;;;1.80;;
36195;SDS011;22237;51.974;4.616;2023-07-31T13:00:24;4.85;;;1.80;;
36195;SDS011;22237;51.974;4.616;2023-07-31T13:02:51;3.13;;;1.52;;
36195;SDS011;22237;51.974;4.616;2023-07-31T13:05:16;1.20;;;1.10;;
36195;SDS011;22237;51.974;4.616;2023-07-31T13:07:42;0.77;;;0.63;;
36195;SDS011;22237;51.974;4.616;2023-07-31T13:10:07;1.60;;;0.90;;
36195;SDS011;22237;51.974;4.616;2023-07-31T13:12:33;3.35;;;0.90;;
36195;SDS011;22237;51.974;4.616;2023-07-31T13:14:59;3.20;;;1.10;;
36195;SDS011;22237;51.974;4.616;2023-07-31T13:17:24;2.22;;;1.65;;
36195;SDS011;22237;51.974;4.616;2023-07-31T13:19:51;1.70;;;0.88;;
36195;SDS011;22237;51.974;4.616;2023-07-31T13:22:16;3.05;;;0.82;;
36195;SDS011;22237;51.974;4.616;2023-07-31T13:24:41;6.72;;;1.90;;
36195;SDS011;22237;51.974;4.616;2023-07-31T13:27:07;0.90;;;0.90;;
36195;SDS011;22237;51.974;4.616;2023-07-31T13:29:32;1.20;;;1.10;;
36195;SDS011;22237;51.974;4.616;2023-07-31T13:31:58;1.08;;;0.98;;
36195;SDS011;22237;51.974;4.616;2023-07-31T13:34:23;2.50;;;1.02;;
36195;SDS011;22237;51.974;4.616;2023-07-31T13:36:49;2.00;;;0.80;;
36195;SDS011;22237;51.974;4.616;2023-07-31T13:39:14;1.48;;;0.80;;
36195;SDS011;22237;51.974;4.616;2023-07-31T13:41:39;2.08;;;1.10;;
36195;SDS011;22237;51.974;4.616;2023-07-31T13:44:05;1.02;;;0.80;;
36195;SDS011;22237;51.974;4.616;2023-07-31T13:46:30;0.82;;;0.82;;
36195;SDS011;22237;51.974;4.616;2023-07-31T13:48:57;0.60;;;0.60;;
36195;SDS011;22237;51.974;4.616;2023-07-31T13:51:23;0.90;;;0.80;;
36195;SDS011;22237;51.974;4.616;2023-07-31T13:53:48;5.32;;;0.80;;
36195;SDS011;22237;51.974;4.616;2023-07-31T13:56:13;0.75;;;0.75;;
36195;SDS011;22237;51.974;4.616;2023-07-31T13:58:39;1.48;;;1.00;;
36195;SDS011;22237;51.974;4.616;2023-07-31T14:01:04;0.70;;;0.70;;
36195;SDS011;22237;51.974;4.616;2023-07-31T14:03:30;1.10;;;1.00;;
36195;SDS011;22237;51.974;4.616;2023-07-31T14:05:56;0.70;;;0.65;;
36195;SDS011;22237;51.974;4.616;2023-07-31T14:08:21;0.77;;;0.77;;
36195;SDS011;22237;51.974;4.616;2023-07-31T14:10:47;1.40;;;0.93;;
36195;SDS011;22237;51.974;4.616;2023-07-31T14:13:12;0.88;;;0.88;;
36195;SDS011;22237;51.974;4.616;2023-07-31T14:15:39;0.70;;;0.70;;
36195;SDS011;22237;51.974;4.616;2023-07-31T14:18:07;0.82;;;0.82;;
36195;SDS011;22237;51.974;4.616;2023-07-31T14:20:32;0.52;;;0.52;;
36195;SDS011;22237;51.974;4.616;2023-07-31T14:22:57;0.50;;;0.50;;
36195;SDS011;22237;51.974;4.616;2023-07-31T14:25:23;1.85;;;0.65;;
36195;SDS011;22237;51.974;4.616;2023-07-31T14:27:49;1.05;;;0.95;;
36195;SDS011;22237;51.974;4.616;2023-07-31T14:30:15;1.27;;;1.17;;
36195;SDS011;22237;51.974;4.616;2023-07-31T14:32:41;1.23;;;1.02;;
36195;SDS011;22237;51.974;4.616;2023-07-31T14:35:06;10.07;;;3.40;;
36195;SDS011;22237;51.974;4.616;2023-07-31T14:37:39;1.40;;;1.30;;
36195;SDS011;22237;51.974;4.616;2023-07-31T14:40:08;2.22;;;1.80;;
36195;SDS011;22237;51.974;4.616;2023-07-31T14:42:35;1.98;;;1.58;;
36195;SDS011;22237;51.974;4.616;2023-07-31T14:45:00;3.42;;;1.70;;
36195;SDS011;22237;51.974;4.616;2023-07-31T14:47:26;1.55;;;1.10;;
36195;SDS011;22237;51.974;4.616;2023-07-31T14:49:51;1.80;;;1.50;;
36195;SDS011;22237;51.974;4.616;2023-07-31T14:52:17;1.55;;;1.20;;
36195;SDS011;22237;51.974;4.616;2023-07-31T14:54:43;3.50;;;1.65;;
36195;SDS011;22237;51.974;4.616;2023-07-31T14:57:10;1.40;;;1.13;;
36195;SDS011;22237;51.974;4.616;2023-07-31T14:59:35;1.75;;;1.10;;
36195;SDS011;22237;51.974;4.616;2023-07-31T15:02:00;2.63;;;1.20;;
36195;SDS011;22237;51.974;4.616;2023-07-31T15:04:26;2.00;;;1.13;;
36195;SDS011;22237;51.974;4.616;2023-07-31T15:06:51;5.22;;;1.42;;
36195;SDS011;22237;51.974;4.616;2023-07-31T15:09:17;1.27;;;0.80;;
36195;SDS011;22237;51.974;4.616;2023-07-31T15:11:42;1.35;;;1.00;;
36195;SDS011;22237;51.974;4.616;2023-07-31T15:14:08;0.60;;;0.60;;
36195;SDS011;22237;51.974;4.616;2023-07-31T15:16:33;0.90;;;0.90;;